Time;durP1;ratioP1;P1;durP2;ratioP2;P2;SDS_P1;SDS_P2;PMS_P1;PMS_P2;Temp;Humidity;BMP_temperature;BMP_pressure;BME280_temperature;BME280_humidity;BME280_pressure;Samples;Min_cycle;Max_cycle;Signal;HPM_P1;HPM_P2
2023/07/20 00:02:19;;;;;;;;;;;28.90;62.40;;;;;;5149569;27;42946;-76
2023/07/20 00:04:50;;;;;;;;;;;28.90;62.60;;;;;;5150082;27;43095;-76
2023/07/20 00:07:16;;;;;;;;;;;28.90;62.30;;;;;;5149151;27;43460;-77
2023/07/20 00:09:41;;;;;;;;;;;28.80;62.30;;;;;;5148744;27;42853;-78
2023/07/20 00:12:07;;;;;;;;;;;28.80;61.80;;;;;;5149129;27;43030;-76
2023/07/20 00:14:33;;;;;;;;;;;28.80;62.80;;;;;;5148821;27;42865;-76
2023/07/20 00:16:58;;;;;;;;;;;28.80;62.30;;;;;;5147083;27;43570;-75
2023/07/20 00:19:25;;;;;;;;;;;28.80;63.20;;;;;;5149956;27;42947;-76
2023/07/20 00:21:51;;;;;;;;;;;28.80;62.90;;;;;;5149067;27;43381;-76
2023/07/20 00:24:16;;;;;;;;;;;28.80;62.50;;;;;;5148875;27;42861;-77
2023/07/20 00:26:42;;;;;;;;;;;28.90;63.60;;;;;;5149022;27;42941;-75
2023/07/20 00:29:07;;;;;;;;;;;28.80;63.10;;;;;;5149437;27;42842;-76
2023/07/20 00:31:34;;;;;;;;;;;28.70;62.10;;;;;;5149496;27;42887;-76
2023/07/20 00:34:00;;;;;;;;;;;28.70;62.30;;;;;;5149029;27;42779;-75
2023/07/20 00:36:26;;;;;;;;;;;28.60;63.00;;;;;;5148903;27;42972;-76
2023/07/20 00:38:51;;;;;;;;;;;28.70;63.10;;;;;;5129046;27;43508;-75
2023/07/20 00:41:17;;;;;;;;;;;28.70;63.20;;;;;;5127313;27;43178;-76
2023/07/20 00:43:42;;;;;;;;;;;28.60;62.80;;;;;;5127180;27;42919;-77
2023/07/20 00:46:09;;;;;;;;;;;28.60;63.40;;;;;;5127062;27;42918;-75
2023/07/20 00:48:35;;;;;;;;;;;28.60;63.30;;;;;;5127967;27;42938;-78
2023/07/20 00:51:01;;;;;;;;;;;28.60;63.10;;;;;;5127831;27;44211;-77
2023/07/20 00:53:27;;;;;;;;;;;28.70;62.80;;;;;;5127376;27;43092;-76
2023/07/20 00:55:52;;;;;;;;;;;28.70;63.10;;;;;;5134434;27;42967;-75
2023/07/20 00:58:18;;;;;;;;;;;28.70;62.80;;;;;;5148943;27;42842;-76
2023/07/20 01:00:44;;;;;;;;;;;28.60;61.90;;;;;;5148712;27;43562;-75
2023/07/20 01:03:10;;;;;;;;;;;28.40;62.90;;;;;;5146663;27;42955;-75
2023/07/20 01:05:47;;;;;;;;;;;28.40;63.30;;;;;;5148295;27;42934;-75
2023/07/20 01:08:21;;;;;;;;;;;28.50;62.90;;;;;;5148857;27;42781;-75
2023/07/20 01:10:51;;;;;;;;;;;28.50;63.10;;;;;;5148942;27;42825;-76
2023/07/20 01:13:17;;;;;;;;;;;28.50;63.30;;;;;;5148164;27;42848;-76
2023/07/20 01:15:48;;;;;;;;;;;28.30;62.90;;;;;;5148600;27;43378;-75
2023/07/20 01:18:14;;;;;;;;;;;28.40;63.30;;;;;;5148333;27;42987;-76
2023/07/20 01:20:39;;;;;;;;;;;28.30;63.90;;;;;;5148422;27;43324;-76
2023/07/20 01:23:23;;;;;;;;;;;28.40;63.40;;;;;;5147693;27;43041;-76
2023/07/20 01:26:08;;;;;;;;;;;28.40;62.30;;;;;;5147606;27;43890;-76
2023/07/20 01:28:33;;;;;;;;;;;28.40;62.10;;;;;;5147901;27;42895;-75
2023/07/20 01:30:59;;;;;;;;;;;28.40;63.60;;;;;;5148468;27;43498;-76
2023/07/20 01:33:25;;;;;;;;;;;28.50;63.30;;;;;;5148197;27;43214;-75
2023/07/20 01:36:00;;;;;;;;;;;28.30;64.00;;;;;;5147868;27;44592;-78
2023/07/20 01:38:26;;;;;;;;;;;28.60;64.50;;;;;;5148137;27;43028;-75
2023/07/20 01:40:52;;;;;;;;;;;28.60;64.50;;;;;;5148126;27;43509;-75
2023/07/20 01:43:17;;;;;;;;;;;28.50;64.10;;;;;;5145772;27;43065;-76
2023/07/20 01:45:43;;;;;;;;;;;28.50;63.80;;;;;;5147831;27;42877;-75
2023/07/20 01:48:19;;;;;;;;;;;28.50;61.60;;;;;;5122714;27;42851;-78
2023/07/20 01:50:45;;;;;;;;;;;28.50;62.60;;;;;;5123451;27;42852;-76
2023/07/20 01:53:11;;;;;;;;;;;28.40;62.10;;;;;;5123242;27;42909;-77
2023/07/20 01:55:36;;;;;;;;;;;28.40;62.10;;;;;;5123223;27;43381;-78
2023/07/20 01:58:03;;;;;;;;;;;28.30;63.10;;;;;;5123537;27;42926;-78
2023/07/20 02:00:28;;;;;;;;;;;28.40;62.90;;;;;;5123098;27;42874;-79
2023/07/20 02:02:54;;;;;;;;;;;28.40;62.00;;;;;;5123306;27;42925;-79
2023/07/20 02:05:20;;;;;;;;;;;28.40;62.20;;;;;;5121019;27;44470;-77
2023/07/20 02:07:45;;;;;;;;;;;28.40;62.30;;;;;;5121143;27;42922;-76
2023/07/20 02:10:11;;;;;;;;;;;28.40;62.10;;;;;;5122594;27;42754;-76
2023/07/20 02:12:37;;;;;;;;;;;28.40;62.10;;;;;;5122796;27;43178;-77
2023/07/20 02:15:03;;;;;;;;;;;28.40;62.10;;;;;;5122753;27;42939;-78
2023/07/20 02:17:28;;;;;;;;;;;28.40;61.80;;;;;;5122536;27;42943;-77
2023/07/20 02:19:54;;;;;;;;;;;28.30;61.90;;;;;;5122731;27;42961;-77
2023/07/20 02:22:20;;;;;;;;;;;28.20;62.10;;;;;;5122501;27;42927;-77
2023/07/20 02:25:04;;;;;;;;;;;28.10;62.20;;;;;;5122877;27;43032;-77
2023/07/20 02:27:30;;;;;;;;;;;28.10;62.10;;;;;;5122115;27;43000;-78
2023/07/20 02:29:56;;;;;;;;;;;28.10;62.40;;;;;;5121913;27;43347;-79
2023/07/20 02:32:21;;;;;;;;;;;28.00;62.30;;;;;;5120860;27;42877;-77
2023/07/20 02:34:47;;;;;;;;;;;27.40;61.90;;;;;;5122678;27;42917;-76
2023/07/20 02:37:12;;;;;;;;;;;28.00;62.10;;;;;;5122632;27;43039;-78
2023/07/20 02:39:38;;;;;;;;;;;28.00;61.90;;;;;;5122039;27;43264;-80
2023/07/20 02:42:04;;;;;;;;;;;28.10;61.40;;;;;;5121365;27;42792;-78
2023/07/20 02:44:30;;;;;;;;;;;28.10;61.60;;;;;;5120042;27;43687;-76
2023/07/20 02:46:55;;;;;;;;;;;28.00;60.90;;;;;;5121946;27;43022;-77
2023/07/20 02:49:21;;;;;;;;;;;28.00;61.70;;;;;;5121882;27;43682;-76
2023/07/20 02:51:46;;;;;;;;;;;28.00;62.00;;;;;;5121955;27;42778;-78
2023/07/20 02:54:12;;;;;;;;;;;28.00;61.90;;;;;;5122180;27;42919;-77
2023/07/20 02:56:37;;;;;;;;;;;27.90;61.30;;;;;;5122503;27;42929;-76
2023/07/20 02:59:03;;;;;;;;;;;27.90;61.40;;;;;;5111379;27;43694;-76
2023/07/20 03:01:29;;;;;;;;;;;27.80;61.30;;;;;;5107861;27;42980;-76
2023/07/20 03:03:55;;;;;;;;;;;27.90;62.20;;;;;;5108661;27;43451;-76
2023/07/20 03:06:21;;;;;;;;;;;27.80;62.00;;;;;;5107916;27;42863;-76
2023/07/20 03:08:51;;;;;;;;;;;27.80;61.20;;;;;;5107813;27;42952;-77
2023/07/20 03:11:18;;;;;;;;;;;27.80;61.50;;;;;;5107614;27;42936;-76
2023/07/20 03:13:43;;;;;;;;;;;27.90;61.00;;;;;;5107233;27;43529;-76
2023/07/20 03:16:11;;;;;;;;;;;27.90;61.00;;;;;;5108153;27;43149;-76
2023/07/20 03:18:37;;;;;;;;;;;28.00;61.60;;;;;;5104999;27;43475;-76
2023/07/20 03:21:03;;;;;;;;;;;28.00;61.60;;;;;;5108285;27;42968;-76
2023/07/20 03:23:28;;;;;;;;;;;28.00;61.70;;;;;;5108139;27;43052;-78
2023/07/20 03:25:55;;;;;;;;;;;28.00;60.90;;;;;;5107882;27;42930;-76
2023/07/20 03:28:20;;;;;;;;;;;28.00;60.60;;;;;;5108027;27;42862;-76
2023/07/20 03:30:46;;;;;;;;;;;28.00;61.00;;;;;;5107892;27;42713;-76
2023/07/20 03:33:11;;;;;;;;;;;27.90;60.10;;;;;;5106099;27;43042;-77
2023/07/20 03:35:37;;;;;;;;;;;27.90;60.60;;;;;;5106181;27;42981;-77
2023/07/20 03:38:04;;;;;;;;;;;28.00;60.60;;;;;;5107703;27;43761;-76
2023/07/20 03:40:29;;;;;;;;;;;28.00;59.90;;;;;;5107749;27;42802;-77
2023/07/20 03:42:55;;;;;;;;;;;28.00;60.50;;;;;;5107225;27;42974;-78
2023/07/20 03:45:23;;;;;;;;;;;28.00;60.40;;;;;;5107074;27;42935;-76
2023/07/20 03:47:49;;;;;;;;;;;28.00;59.70;;;;;;5106376;27;43014;-76
2023/07/20 03:50:14;;;;;;;;;;;28.00;60.00;;;;;;5104609;27;43123;-77
2023/07/20 03:52:40;;;;;;;;;;;28.00;60.60;;;;;;5106624;27;43587;-76
2023/07/20 03:55:06;;;;;;;;;;;28.00;59.50;;;;;;5106388;27;43064;-76
2023/07/20 03:57:32;;;;;;;;;;;27.90;60.20;;;;;;5106779;27;42954;-76
2023/07/20 03:59:58;;;;;;;;;;;28.00;60.00;;;;;;5107402;27;42978;-76
2023/07/20 04:02:23;;;;;;;;;;;27.90;61.50;;;;;;5106912;27;43978;-78
2023/07/20 04:04:49;;;;;;;;;;;27.80;60.40;;;;;;5107020;27;43044;-76
2023/07/20 04:07:14;;;;;;;;;;;27.80;59.70;;;;;;5104839;27;42871;-78
2023/07/20 04:09:40;;;;;;;;;;;27.80;60.90;;;;;;5101290;27;42982;-76
2023/07/20 04:12:06;;;;;;;;;;;27.90;60.80;;;;;;5105834;27;43562;-76
2023/07/20 04:14:31;;;;;;;;;;;27.90;61.40;;;;;;5105375;27;42960;-76
2023/07/20 04:16:57;;;;;;;;;;;27.90;60.20;;;;;;5101599;27;42977;-75
2023/07/20 04:19:22;;;;;;;;;;;27.90;61.00;;;;;;5102164;27;43094;-73
2023/07/20 04:21:48;;;;;;;;;;;27.90;61.30;;;;;;5103779;27;43610;-76
2023/07/20 04:24:13;;;;;;;;;;;27.90;61.20;;;;;;5107033;27;42966;-77
2023/07/20 04:26:39;;;;;;;;;;;27.90;63.00;;;;;;5107359;27;43934;-75
2023/07/20 04:29:04;;;;;;;;;;;28.10;65.80;;;;;;5106441;27;42910;-78
2023/07/20 04:31:33;;;;;;;;;;;27.90;61.50;;;;;;5105233;27;43110;-79
2023/07/20 04:33:58;;;;;;;;;;;27.90;61.60;;;;;;5105872;27;43675;-79
2023/07/20 04:36:24;;;;;;;;;;;27.90;66.30;;;;;;5104007;27;44749;-77
2023/07/20 04:38:49;;;;;;;;;;;28.00;64.20;;;;;;5104433;27;43039;-78
2023/07/20 04:41:15;;;;;;;;;;;28.00;64.80;;;;;;5101101;27;44042;-77
2023/07/20 04:43:41;;;;;;;;;;;28.00;61.00;;;;;;5106391;27;43015;-77
2023/07/20 04:46:06;;;;;;;;;;;28.00;62.10;;;;;;5105011;27;42975;-78
2023/07/20 04:48:32;;;;;;;;;;;28.10;65.80;;;;;;5106497;27;43062;-77
2023/07/20 04:50:57;;;;;;;;;;;28.00;61.50;;;;;;5105579;27;42897;-78
2023/07/20 04:53:23;;;;;;;;;;;28.00;61.40;;;;;;5105304;27;42978;-77
2023/07/20 04:55:54;;;;;;;;;;;28.00;61.60;;;;;;5103841;27;44657;-77
2023/07/20 04:58:20;;;;;;;;;;;28.00;67.00;;;;;;5103374;27;43292;-78
2023/07/20 05:00:46;;;;;;;;;;;28.00;61.80;;;;;;5100274;27;43630;-76
2023/07/20 05:03:11;;;;;;;;;;;28.10;66.20;;;;;;5105437;27;43746;-76
2023/07/20 05:05:37;;;;;;;;;;;27.90;63.80;;;;;;5105893;27;42985;-80
2023/07/20 05:08:03;;;;;;;;;;;28.00;65.90;;;;;;5106139;27;43275;-76
2023/07/20 05:10:29;;;;;;;;;;;28.00;60.20;;;;;;5105472;27;42991;-75
2023/07/20 05:12:54;;;;;;;;;;;28.10;60.80;;;;;;5105588;27;42961;-76
2023/07/20 05:15:20;;;;;;;;;;;28.00;66.70;;;;;;5104813;27;44040;-76
2023/07/20 05:17:46;;;;;;;;;;;28.20;61.00;;;;;;5105488;27;43023;-75
2023/07/20 05:20:12;;;;;;;;;;;28.20;64.10;;;;;;5104321;27;43046;-75
2023/07/20 05:22:40;;;;;;;;;;;28.50;64.90;;;;;;5104197;27;42897;-76
2023/07/20 05:25:06;;;;;;;;;;;28.40;62.80;;;;;;5105304;27;43270;-76
2023/07/20 05:27:32;;;;;;;;;;;28.20;60.30;;;;;;5105026;27;42827;-80
2023/07/20 05:29:57;;;;;;;;;;;28.10;66.40;;;;;;5105784;27;43053;-76
2023/07/20 05:32:23;;;;;;;;;;;28.20;61.70;;;;;;5104799;27;43019;-76
2023/07/20 05:34:51;;;;;;;;;;;28.20;67.30;;;;;;5104878;27;42931;-75
2023/07/20 05:37:16;;;;;;;;;;;28.30;64.90;;;;;;5105278;27;43144;-76
2023/07/20 05:39:42;;;;;;;;;;;28.20;67.40;;;;;;5105527;27;42972;-76
2023/07/20 05:42:07;;;;;;;;;;;28.20;67.70;;;;;;5101833;27;43062;-78
2023/07/20 05:44:33;;;;;;;;;;;28.00;67.10;;;;;;5102436;27;43559;-82
2023/07/20 05:46:58;;;;;;;;;;;28.00;64.30;;;;;;5103393;27;43078;-81
2023/07/20 05:49:24;;;;;;;;;;;28.20;63.30;;;;;;5101927;27;43260;-81
2023/07/20 05:51:50;;;;;;;;;;;28.20;62.70;;;;;;5104882;27;43059;-79
2023/07/20 05:54:15;;;;;;;;;;;28.20;67.10;;;;;;5104662;27;42909;-75
2023/07/20 05:56:41;;;;;;;;;;;28.30;61.70;;;;;;5090551;27;43894;-83
2023/07/20 05:59:06;;;;;;;;;;;28.40;62.40;;;;;;5086346;27;43043;-76
2023/07/20 06:01:32;;;;;;;;;;;28.40;60.30;;;;;;5102322;27;43016;-75
2023/07/20 06:03:57;;;;;;;;;;;28.50;60.40;;;;;;5104704;27;43599;-87
2023/07/20 06:06:23;;;;;;;;;;;28.70;61.60;;;;;;5101707;27;43283;-76
2023/07/20 06:08:48;;;;;;;;;;;28.60;60.10;;;;;;5101979;27;43830;-76
2023/07/20 06:11:14;;;;;;;;;;;28.60;60.10;;;;;;5104266;27;42994;-80
2023/07/20 06:13:40;;;;;;;;;;;28.60;60.20;;;;;;5098622;27;43440;-80
2023/07/20 06:16:05;;;;;;;;;;;28.60;60.20;;;;;;5099012;27;42976;-76
2023/07/20 06:18:31;;;;;;;;;;;28.70;59.80;;;;;;5103784;27;42889;-78
2023/07/20 06:20:57;;;;;;;;;;;28.60;65.70;;;;;;5102578;27;43016;-77
2023/07/20 06:23:22;;;;;;;;;;;28.70;64.50;;;;;;5102728;27;43115;-82
2023/07/20 06:25:48;;;;;;;;;;;28.70;66.70;;;;;;5104369;27;42927;-81
2023/07/20 06:28:14;;;;;;;;;;;28.80;64.60;;;;;;5104149;27;43131;-81
2023/07/20 06:30:39;;;;;;;;;;;28.90;62.40;;;;;;5104257;27;42964;-76
2023/07/20 06:33:05;;;;;;;;;;;28.90;66.40;;;;;;5104613;27;44312;-77
2023/07/20 06:35:30;;;;;;;;;;;28.80;63.20;;;;;;5105839;27;43192;-77
2023/07/20 06:37:57;;;;;;;;;;;28.80;61.80;;;;;;5112712;27;43117;-77
2023/07/20 06:40:23;;;;;;;;;;;28.90;61.50;;;;;;5119349;27;43054;-76
2023/07/20 06:42:48;;;;;;;;;;;28.80;63.30;;;;;;5116885;27;43553;-78
2023/07/20 06:45:14;;;;;;;;;;;28.80;60.30;;;;;;5114445;27;43240;-77
2023/07/20 06:47:39;;;;;;;;;;;28.70;63.00;;;;;;5105567;27;43003;-76
2023/07/20 06:50:08;;;;;;;;;;;28.70;62.30;;;;;;5108407;27;42947;-77
2023/07/20 06:52:34;;;;;;;;;;;28.90;62.00;;;;;;5108412;27;43801;-79
2023/07/20 06:55:00;;;;;;;;;;;28.90;59.60;;;;;;5108138;27;42863;-76
2023/07/20 06:57:25;;;;;;;;;;;28.90;58.70;;;;;;5106598;27;42858;-77
2023/07/20 06:59:51;;;;;;;;;;;28.90;60.00;;;;;;5108005;27;43027;-83
2023/07/20 07:02:17;;;;;;;;;;;28.90;58.90;;;;;;5108122;27;43434;-83
2023/07/20 07:04:42;;;;;;;;;;;28.90;63.10;;;;;;5106952;27;43022;-83
2023/07/20 07:07:09;;;;;;;;;;;28.90;63.60;;;;;;5104753;27;43498;-79
2023/07/20 07:09:34;;;;;;;;;;;28.90;60.60;;;;;;5107543;27;43127;-79
2023/07/20 07:12:00;;;;;;;;;;;29.00;63.60;;;;;;5107540;27;43857;-78
2023/07/20 07:14:25;;;;;;;;;;;29.60;61.30;;;;;;5108360;27;42790;-76
2023/07/20 07:16:51;;;;;;;;;;;28.90;60.80;;;;;;5104412;27;43992;-82
2023/07/20 07:19:16;;;;;;;;;;;28.90;60.60;;;;;;5107768;27;42858;-83
2023/07/20 07:21:42;;;;;;;;;;;28.90;62.10;;;;;;5103903;27;42906;-80
2023/07/20 07:24:09;;;;;;;;;;;29.10;68.40;;;;;;5104500;27;42946;-84
2023/07/20 07:26:35;;;;;;;;;;;29.20;70.40;;;;;;5104055;27;43661;-77
2023/07/20 07:29:01;;;;;;;;;;;29.20;67.20;;;;;;5107537;27;43017;-77
2023/07/20 07:31:26;;;;;;;;;;;29.10;60.10;;;;;;5107258;27;42894;-78
2023/07/20 07:33:52;;;;;;;;;;;29.30;63.70;;;;;;5107337;27;42874;-77
2023/07/20 07:36:17;;;;;;;;;;;29.20;65.80;;;;;;5107142;27;44085;-78
2023/07/20 07:38:43;;;;;;;;;;;29.00;70.70;;;;;;5107869;27;42944;-81
2023/07/20 07:41:08;;;;;;;;;;;29.10;57.40;;;;;;5107593;27;43356;-78
2023/07/20 07:43:35;;;;;;;;;;;29.10;57.30;;;;;;5107247;27;43070;-76
2023/07/20 07:46:00;;;;;;;;;;;29.20;57.90;;;;;;5105854;27;43006;-77
2023/07/20 07:48:26;;;;;;;;;;;29.20;58.00;;;;;;5107270;27;42754;-78
2023/07/20 07:50:53;;;;;;;;;;;29.20;57.40;;;;;;5107705;27;43895;-83
2023/07/20 07:53:20;;;;;;;;;;;29.30;57.20;;;;;;5107183;27;42877;-78
2023/07/20 07:55:47;;;;;;;;;;;29.30;57.20;;;;;;5106812;27;43579;-78
2023/07/20 07:58:13;;;;;;;;;;;29.30;57.70;;;;;;5106982;27;43005;-83
2023/07/20 08:00:39;;;;;;;;;;;29.30;57.80;;;;;;5106791;27;43206;-78
2023/07/20 08:03:06;;;;;;;;;;;29.20;57.00;;;;;;5106295;27;42965;-80
2023/07/20 08:05:31;;;;;;;;;;;29.30;57.60;;;;;;5106246;27;43432;-77
2023/07/20 08:07:57;;;;;;;;;;;29.20;56.30;;;;;;5106536;27;42952;-77
2023/07/20 08:10:23;;;;;;;;;;;29.30;57.20;;;;;;5106531;27;42871;-78
2023/07/20 08:12:48;;;;;;;;;;;29.30;57.30;;;;;;5106977;27;43204;-80
2023/07/20 08:15:14;;;;;;;;;;;29.30;57.30;;;;;;5104244;27;43275;-83
2023/07/20 08:17:41;;;;;;;;;;;29.30;57.50;;;;;;5102246;27;42960;-77
2023/07/20 08:20:06;;;;;;;;;;;29.30;57.00;;;;;;5106172;27;43864;-82
2023/07/20 08:22:32;;;;;;;;;;;29.30;56.90;;;;;;5106673;27;43038;-83
2023/07/20 08:24:58;;;;;;;;;;;29.30;57.40;;;;;;5100016;27;43789;-83
2023/07/20 08:27:23;;;;;;;;;;;29.30;57.10;;;;;;5106289;27;43019;-77
2023/07/20 08:29:49;;;;;;;;;;;29.40;57.30;;;;;;5106817;27;42922;-77
2023/07/20 08:32:15;;;;;;;;;;;29.30;56.60;;;;;;5106892;27;42965;-78
2023/07/20 08:34:41;;;;;;;;;;;29.30;56.40;;;;;;5106613;27;43604;-78
2023/07/20 08:37:06;;;;;;;;;;;29.40;56.30;;;;;;5106970;27;43032;-77
2023/07/20 08:39:32;;;;;;;;;;;29.30;56.10;;;;;;5106845;27;42860;-80
2023/07/20 08:41:59;;;;;;;;;;;29.40;56.80;;;;;;5106948;27;42944;-82
2023/07/20 08:44:25;;;;;;;;;;;29.40;55.90;;;;;;5106505;27;43982;-77
2023/07/20 08:46:51;;;;;;;;;;;29.40;56.40;;;;;;5106076;27;42834;-77
2023/07/20 08:49:18;;;;;;;;;;;29.40;56.80;;;;;;5106220;27;42892;-83
2023/07/20 08:51:45;;;;;;;;;;;29.40;57.30;;;;;;5106592;27;42840;-82
2023/07/20 08:54:12;;;;;;;;;;;29.50;56.30;;;;;;5106263;27;42921;-77
2023/07/20 08:56:38;;;;;;;;;;;29.40;56.30;;;;;;5105625;27;42865;-80
2023/07/20 08:59:04;;;;;;;;;;;29.40;56.80;;;;;;5105694;27;44357;-81
2023/07/20 09:01:30;;;;;;;;;;;29.40;56.30;;;;;;5106443;27;43025;-79
2023/07/20 09:03:56;;;;;;;;;;;29.40;56.30;;;;;;5104930;27;43513;-78
2023/07/20 09:06:21;;;;;;;;;;;29.40;56.40;;;;;;5103697;27;43038;-77
2023/07/20 09:08:47;;;;;;;;;;;29.40;55.60;;;;;;5097002;27;43796;-80
2023/07/20 09:11:15;;;;;;;;;;;29.40;55.80;;;;;;5085603;28;43004;-81
2023/07/20 09:13:41;;;;;;;;;;;29.30;55.00;;;;;;5085733;28;43495;-77
2023/07/20 09:16:06;;;;;;;;;;;29.40;55.20;;;;;;5085732;28;42911;-81
2023/07/20 09:18:34;;;;;;;;;;;29.50;55.10;;;;;;5087041;27;43625;-82
2023/07/20 09:21:03;;;;;;;;;;;29.30;53.60;;;;;;5105799;27;42970;-82
2023/07/20 09:23:32;;;;;;;;;;;29.40;54.10;;;;;;5106117;27;43564;-81
2023/07/20 09:25:58;;;;;;;;;;;29.30;53.60;;;;;;5105901;27;42735;-75
2023/07/20 09:28:24;;;;;;;;;;;29.30;53.20;;;;;;5101114;27;42937;-81
2023/07/20 09:30:49;;;;;;;;;;;29.40;52.60;;;;;;5103702;27;42934;-75
2023/07/20 09:33:18;;;;;;;;;;;29.40;52.80;;;;;;5105044;27;42867;-76
2023/07/20 09:35:44;;;;;;;;;;;29.40;52.90;;;;;;5105143;27;43000;-76
2023/07/20 09:38:09;;;;;;;;;;;29.30;52.50;;;;;;5105241;27;43449;-77
2023/07/20 09:40:38;;;;;;;;;;;29.40;53.10;;;;;;5104898;27;42950;-76
2023/07/20 09:43:07;;;;;;;;;;;29.40;51.60;;;;;;5105070;27;43474;-76
2023/07/20 09:45:33;;;;;;;;;;;29.30;50.90;;;;;;5104973;27;42999;-77
2023/07/20 09:48:08;;;;;;;;;;;29.30;51.40;;;;;;5099062;27;43908;-76
2023/07/20 09:50:48;;;;;;;;;;;29.30;50.70;;;;;;5103359;27;42825;-76
2023/07/20 09:53:14;;;;;;;;;;;29.30;51.30;;;;;;5103259;27;43697;-80
2023/07/20 09:55:41;;;;;;;;;;;29.30;51.30;;;;;;5105051;27;42951;-76
2023/07/20 09:58:09;;;;;;;;;;;29.40;51.10;;;;;;5097703;27;45035;-76
2023/07/20 10:00:36;;;;;;;;;;;29.40;51.70;;;;;;5103273;27;42998;-76
2023/07/20 10:03:03;;;;;;;;;;;29.40;50.90;;;;;;5104979;27;43490;-76
2023/07/20 10:05:31;;;;;;;;;;;29.50;51.00;;;;;;5103991;27;42930;-75
2023/07/20 10:07:57;;;;;;;;;;;29.40;51.00;;;;;;5104344;27;42929;-77
2023/07/20 10:10:22;;;;;;;;;;;29.50;51.70;;;;;;5107627;27;42947;-76
2023/07/20 10:12:48;;;;;;;;;;;29.50;52.00;;;;;;5108036;27;42892;-82
2023/07/20 10:15:20;;;;;;;;;;;29.50;51.30;;;;;;5107922;27;42917;-76
2023/07/20 10:17:55;;;;;;;;;;;29.50;51.50;;;;;;5105863;27;44093;-76
2023/07/20 10:20:21;;;;;;;;;;;29.60;52.50;;;;;;5105026;27;43059;-78
2023/07/20 10:22:49;;;;;;;;;;;29.60;51.80;;;;;;5107258;27;43115;-83
2023/07/20 10:25:15;;;;;;;;;;;29.50;51.20;;;;;;5107502;27;43102;-76
2023/07/20 10:27:41;;;;;;;;;;;29.60;51.60;;;;;;5107598;27;43023;-76
2023/07/20 10:30:07;;;;;;;;;;;29.50;51.10;;;;;;5108470;27;43221;-76
2023/07/20 10:32:32;;;;;;;;;;;29.60;51.20;;;;;;5108202;27;44048;-77
2023/07/20 10:34:58;;;;;;;;;;;29.60;51.20;;;;;;5107967;27;42982;-75
2023/07/20 10:37:42;;;;;;;;;;;29.50;51.60;;;;;;5108054;27;42964;-79
2023/07/20 10:40:40;;;;;;;;;;;29.70;51.90;;;;;;5107262;27;42853;-76
2023/07/20 10:43:09;;;;;;;;;;;29.70;51.90;;;;;;5084834;27;43674;-76
2023/07/20 10:45:35;;;;;;;;;;;29.60;52.10;;;;;;5108981;27;43129;-77
2023/07/20 10:48:05;;;;;;;;;;;29.60;52.00;;;;;;5107912;27;42947;-77
2023/07/20 10:50:32;;;;;;;;;;;29.70;52.30;;;;;;5103181;27;42932;-76
2023/07/20 10:53:05;;;;;;;;;;;29.70;51.80;;;;;;5104753;27;43744;-77
2023/07/20 10:55:31;;;;;;;;;;;29.70;51.90;;;;;;5104877;27;42983;-76
2023/07/20 10:58:11;;;;;;;;;;;29.60;51.20;;;;;;5107970;27;42907;-76
2023/07/20 11:00:37;;;;;;;;;;;29.60;51.20;;;;;;5130874;27;42994;-76
2023/07/20 11:03:04;;;;;;;;;;;29.60;51.30;;;;;;5107828;27;43017;-79
2023/07/20 11:05:36;;;;;;;;;;;29.60;51.30;;;;;;5107706;27;42971;-76
2023/07/20 11:08:03;;;;;;;;;;;29.70;52.10;;;;;;5107571;27;42956;-76
2023/07/20 11:10:29;;;;;;;;;;;29.70;51.90;;;;;;5113477;27;43058;-77
2023/07/20 11:13:13;;;;;;;;;;;29.70;52.00;;;;;;5116823;27;44033;-76
2023/07/20 11:15:57;;;;;;;;;;;29.70;51.90;;;;;;5116521;27;42893;-79
2023/07/20 11:18:25;;;;;;;;;;;29.80;51.80;;;;;;5108528;27;44495;-82
2023/07/20 11:20:50;;;;;;;;;;;29.60;50.70;;;;;;5106353;27;43119;-76
2023/07/20 11:23:16;;;;;;;;;;;29.70;50.70;;;;;;5106742;27;43910;-79
2023/07/20 11:25:42;;;;;;;;;;;29.60;51.20;;;;;;5106888;27;42983;-82
2023/07/20 11:28:10;;;;;;;;;;;29.70;51.90;;;;;;5107059;27;43166;-82
2023/07/20 11:30:36;;;;;;;;;;;29.70;51.70;;;;;;5107092;27;42968;-78
2023/07/20 11:33:02;;;;;;;;;;;29.70;51.60;;;;;;5107177;27;43457;-84
2023/07/20 11:35:27;;;;;;;;;;;29.80;50.70;;;;;;5107743;27;42938;-81
2023/07/20 11:37:53;;;;;;;;;;;29.80;51.40;;;;;;5107160;27;42853;-83
2023/07/20 11:40:18;;;;;;;;;;;29.80;51.30;;;;;;5107461;27;42831;-87
2023/07/20 11:42:45;;;;;;;;;;;29.80;50.60;;;;;;5107039;27;44189;-74
2023/07/20 11:45:11;;;;;;;;;;;29.80;50.00;;;;;;5107110;27;43081;-73
2023/07/20 11:47:40;;;;;;;;;;;29.80;49.10;;;;;;5100405;27;43571;-77
2023/07/20 11:50:06;;;;;;;;;;;29.80;49.90;;;;;;5101873;27;43043;-72
2023/07/20 11:52:31;;;;;;;;;;;29.80;48.90;;;;;;5101041;27;43060;-78
2023/07/20 11:54:57;;;;;;;;;;;29.70;49.80;;;;;;5102856;27;43018;-76
2023/07/20 11:57:23;;;;;;;;;;;29.80;50.70;;;;;;5097757;27;43434;-81
2023/07/20 11:59:57;;;;;;;;;;;29.80;49.20;;;;;;5106155;27;43083;-74
2023/07/20 12:02:25;;;;;;;;;;;29.80;49.10;;;;;;5105933;27;43134;-73
2023/07/20 12:04:52;;;;;;;;;;;29.70;49.20;;;;;;5103359;27;42829;-73
2023/07/20 12:07:20;;;;;;;;;;;29.80;49.70;;;;;;5106323;27;43246;-74
2023/07/20 12:10:04;;;;;;;;;;;29.80;49.50;;;;;;5106457;27;43018;-72
2023/07/20 12:12:31;;;;;;;;;;;29.80;49.80;;;;;;5102701;27;43599;-75
2023/07/20 12:15:11;;;;;;;;;;;29.80;50.00;;;;;;5105487;27;43069;-77
2023/07/20 12:17:41;;;;;;;;;;;29.90;50.20;;;;;;5103963;27;43707;-74
2023/07/20 12:20:07;;;;;;;;;;;29.90;50.20;;;;;;5105898;27;42966;-75
2023/07/20 12:22:37;;;;;;;;;;;30.00;50.20;;;;;;5105612;27;42984;-79
2023/07/20 12:25:05;;;;;;;;;;;29.90;49.60;;;;;;5105739;27;42967;-76
2023/07/20 12:27:31;;;;;;;;;;;29.90;50.10;;;;;;5102096;27;43035;-72
2023/07/20 12:29:57;;;;;;;;;;;29.90;50.40;;;;;;5105560;27;42834;-74
2023/07/20 12:32:23;;;;;;;;;;;29.90;49.70;;;;;;5103712;27;43559;-74
2023/07/20 12:34:48;;;;;;;;;;;30.00;49.60;;;;;;5101715;27;43044;-73
2023/07/20 12:37:13;;;;;;;;;;;29.90;49.60;;;;;;5104150;27;42882;-72
2023/07/20 12:39:40;;;;;;;;;;;29.90;49.40;;;;;;5106757;27;42865;-72
2023/07/20 12:42:06;;;;;;;;;;;30.00;49.90;;;;;;5106072;27;42963;-79
2023/07/20 12:44:31;;;;;;;;;;;29.90;49.70;;;;;;5106123;27;43016;-73
2023/07/20 12:46:57;;;;;;;;;;;30.00;49.00;;;;;;5105954;27;42973;-72
2023/07/20 12:49:22;;;;;;;;;;;30.10;49.50;;;;;;5105818;27;43666;-76
2023/07/20 12:51:48;;;;;;;;;;;30.00;49.50;;;;;;5097048;27;44671;-73
2023/07/20 12:54:13;;;;;;;;;;;30.00;49.00;;;;;;5096075;27;42984;-73
2023/07/20 12:56:39;;;;;;;;;;;30.00;48.90;;;;;;5095521;27;43096;-72
2023/07/20 12:59:05;;;;;;;;;;;30.00;48.20;;;;;;5100036;27;43010;-73
2023/07/20 13:01:31;;;;;;;;;;;30.00;49.60;;;;;;5110175;27;43785;-72
2023/07/20 13:03:57;;;;;;;;;;;30.10;50.00;;;;;;5106297;27;42941;-78
2023/07/20 13:06:23;;;;;;;;;;;30.10;49.50;;;;;;5106204;27;42878;-79
2023/07/20 13:08:50;;;;;;;;;;;30.20;50.00;;;;;;5106473;27;42933;-82
2023/07/20 13:11:16;;;;;;;;;;;26.20;45.10;;;;;;5106102;27;43512;-79
2023/07/20 13:13:41;;;;;;;;;;;30.10;48.30;;;;;;5104562;27;43035;-72
2023/07/20 13:16:07;;;;;;;;;;;30.10;48.30;;;;;;5105593;27;43466;-73
2023/07/20 13:18:32;;;;;;;;;;;30.00;48.20;;;;;;5104247;27;42987;-82
2023/07/20 13:20:58;;;;;;;;;;;30.10;48.40;;;;;;5105347;27;43057;-72
2023/07/20 13:23:23;;;;;;;;;;;30.20;48.30;;;;;;5104953;27;43011;-72
2023/07/20 13:25:49;;;;;;;;;;;30.20;47.60;;;;;;5105012;27;43351;-72
2023/07/20 13:28:14;;;;;;;;;;;30.10;46.10;;;;;;5105840;27;42896;-72
2023/07/20 13:30:40;;;;;;;;;;;30.10;46.10;;;;;;5104624;27;42957;-73
2023/07/20 13:33:06;;;;;;;;;;;30.10;46.10;;;;;;5099385;27;42919;-72
2023/07/20 13:35:31;;;;;;;;;;;30.10;46.60;;;;;;5085100;28;43490;-73
2023/07/20 13:37:57;;;;;;;;;;;30.00;46.20;;;;;;5085491;28;43115;-78
2023/07/20 13:40:23;;;;;;;;;;;30.10;46.90;;;;;;5084640;28;43001;-73
2023/07/20 13:42:48;;;;;;;;;;;30.10;46.40;;;;;;5084953;27;42997;-72
2023/07/20 13:45:14;;;;;;;;;;;30.10;46.00;;;;;;5085191;28;42968;-82
2023/07/20 13:47:39;;;;;;;;;;;32.60;48.10;;;;;;5090712;27;44126;-72
2023/07/20 13:50:05;;;;;;;;;;;30.00;46.10;;;;;;5105102;27;43398;-79
2023/07/20 13:52:31;;;;;;;;;;;30.10;47.00;;;;;;5091533;27;42903;-74
2023/07/20 13:54:56;;;;;;;;;;;30.00;46.20;;;;;;5105540;27;44145;-73
2023/07/20 13:57:22;;;;;;;;;;;30.10;46.70;;;;;;5104466;27;42771;-72
2023/07/20 13:59:47;;;;;;;;;;;30.10;46.70;;;;;;5105398;27;43424;-78
2023/07/20 14:02:14;;;;;;;;;;;30.10;46.10;;;;;;5104382;27;42901;-82
2023/07/20 14:04:39;;;;;;;;;;;30.10;46.70;;;;;;5104484;27;42897;-73
2023/07/20 14:07:05;;;;;;;;;;;30.10;46.70;;;;;;5112304;27;42955;-73
2023/07/20 14:09:31;;;;;;;;;;;30.10;45.50;;;;;;5104820;27;42997;-72
2023/07/20 14:11:56;;;;;;;;;;;30.00;45.20;;;;;;5104784;27;42960;-73
2023/07/20 14:14:22;;;;;;;;;;;30.10;45.70;;;;;;5105398;27;43642;-72